Time;durP1;ratioP1;P1;durP2;ratioP2;P2;SDS_P1;SDS_P2;PMS_P1;PMS_P2;Temp;Humidity;BMP_temperature;BMP_pressure;BME280_temperature;BME280_humidity;BME280_pressure;Samples;Min_cycle;Max_cycle;Signal;HPM_P1;HPM_P2
2023/07/20 00:02:26;;;;;;;6.32;5.72;;;;;;;22.25;56.82;96163.88;5115266;28;20046;-64
2023/07/20 00:04:53;;;;;;;7.90;4.90;;;;;;;22.54;55.91;96159.47;5115165;28;20047;-64
2023/07/20 00:07:20;;;;;;;9.52;5.22;;;;;;;22.83;55.06;96147.97;5115163;28;20122;-64
2023/07/20 00:09:48;;;;;;;10.40;4.93;;;;;;;23.05;53.47;96140.56;5115232;27;20043;-65
2023/07/20 00:12:17;;;;;;;15.90;4.75;;;;;;;23.18;53.69;96135.75;5115146;28;20138;-64
2023/07/20 00:14:44;;;;;;;20.70;4.53;;;;;;;23.27;53.28;96126.00;5115144;28;20076;-65
2023/07/20 00:17:11;;;;;;;11.57;4.32;;;;;;;23.33;53.02;96129.94;5115002;27;20044;-64
2023/07/20 00:19:38;;;;;;;15.95;3.47;;;;;;;23.48;51.88;96106.28;5114910;28;20131;-64
2023/07/20 00:22:05;;;;;;;13.10;4.60;;;;;;;23.56;51.82;96106.38;5115008;28;20044;-64
2023/07/20 00:24:33;;;;;;;13.45;3.35;;;;;;;23.65;51.08;96109.09;5114801;28;20558;-64
2023/07/20 00:27:02;;;;;;;18.83;3.83;;;;;;;23.67;50.62;96108.00;5114819;28;20039;-64
2023/07/20 00:29:32;;;;;;;17.38;3.55;;;;;;;23.75;49.93;96106.38;5114858;28;20477;-64
2023/07/20 00:32:00;;;;;;;8.57;3.25;;;;;;;23.85;49.55;96096.47;5114590;28;20130;-64
2023/07/20 00:34:28;;;;;;;19.77;3.42;;;;;;;23.84;49.42;96095.63;5114777;28;20055;-64
2023/07/20 00:36:55;;;;;;;13.60;3.40;;;;;;;23.84;50.00;96081.47;5113622;28;20155;-64
2023/07/20 00:39:22;;;;;;;12.65;3.55;;;;;;;23.84;49.21;96066.25;5114466;28;20083;-65
2023/07/20 00:41:50;;;;;;;14.77;3.20;;;;;;;23.84;48.85;96058.25;5114478;27;20118;-64
2023/07/20 00:44:18;;;;;;;12.02;3.13;;;;;;;23.86;48.47;96055.41;5114373;28;20046;-64
2023/07/20 00:46:47;;;;;;;11.60;3.25;;;;;;;23.95;48.47;96062.50;5114419;28;20134;-65
2023/07/20 00:49:14;;;;;;;15.00;3.67;;;;;;;23.96;48.28;96048.16;5114397;28;20047;-64
2023/07/20 00:51:41;;;;;;;14.63;3.47;;;;;;;23.97;48.36;96044.53;5114291;28;20044;-65
2023/07/20 00:54:09;;;;;;;8.48;3.30;;;;;;;24.03;47.69;96035.03;5114357;28;20055;-64
2023/07/20 00:56:37;;;;;;;14.35;3.47;;;;;;;24.07;47.59;96014.19;5114182;28;20062;-64
2023/07/20 00:59:04;;;;;;;12.23;3.33;;;;;;;24.10;47.93;96000.53;5114283;28;20566;-64
2023/07/20 01:01:32;;;;;;;12.80;3.28;;;;;;;24.14;47.70;95993.06;5114077;28;20561;-64
2023/07/20 01:04:00;;;;;;;12.40;3.25;;;;;;;24.19;47.34;95996.09;5114243;27;20101;-65
2023/07/20 01:06:35;;;;;;;11.07;2.80;;;;;;;24.23;47.50;95992.97;5113939;28;20515;-65
2023/07/20 01:09:10;;;;;;;9.70;3.13;;;;;;;24.30;47.13;95987.84;5114123;28;20048;-64
2023/07/20 01:11:44;;;;;;;10.20;3.67;;;;;;;24.38;47.10;95968.31;5113972;28;20051;-64
2023/07/20 01:14:15;;;;;;;7.78;2.55;;;;;;;24.40;47.38;95981.53;5113960;28;20044;-64
2023/07/20 01:16:42;;;;;;;9.25;2.90;;;;;;;24.46;47.63;95962.19;5113997;28;20083;-64
2023/07/20 01:19:11;;;;;;;12.07;3.65;;;;;;;24.52;46.19;95936.66;5113862;28;20043;-65
2023/07/20 01:21:45;;;;;;;6.53;3.22;;;;;;;24.58;46.72;95914.63;5113727;28;20461;-64
2023/07/20 01:24:38;;;;;;;10.23;2.80;;;;;;;24.60;46.05;95912.63;5113816;28;20043;-64
2023/07/20 01:27:33;;;;;;;7.47;2.85;;;;;;;24.65;46.90;95918.31;5113879;28;20044;-64
2023/07/20 01:30:33;;;;;;;13.95;3.00;;;;;;;24.65;47.04;95936.22;5113779;28;20082;-65
2023/07/20 01:33:03;;;;;;;12.27;3.90;;;;;;;24.58;47.18;95944.88;5113760;28;20043;-64
2023/07/20 01:35:32;;;;;;;11.20;3.05;;;;;;;24.53;47.30;95949.03;5113744;28;20051;-65
2023/07/20 01:38:00;;;;;;;10.40;2.50;;;;;;;24.40;47.75;95931.59;5113612;28;20077;-65
2023/07/20 01:40:28;;;;;;;9.85;2.40;;;;;;;24.38;48.75;95927.41;5113680;28;20051;-65
2023/07/20 01:42:56;;;;;;;7.30;3.17;;;;;;;24.31;49.30;95914.69;5113674;28;20497;-65
2023/07/20 01:45:23;;;;;;;12.15;3.30;;;;;;;24.27;49.46;95917.84;5113182;28;20048;-65
2023/07/20 01:47:50;;;;;;;8.82;3.17;;;;;;;24.26;49.70;95916.19;5113160;28;20044;-65
2023/07/20 01:50:19;;;;;;;4.93;2.65;;;;;;;24.19;50.15;95910.63;5113717;28;20055;-65
2023/07/20 01:52:46;;;;;;;6.75;2.40;;;;;;;24.10;50.84;95907.03;5113523;28;20126;-64
2023/07/20 01:55:14;;;;;;;7.30;3.13;;;;;;;23.99;52.40;95916.19;5113513;28;20048;-65
2023/07/20 01:57:41;;;;;;;6.10;2.75;;;;;;;23.86;52.89;95919.25;5113420;28;20043;-64
2023/07/20 02:00:10;;;;;;;7.05;3.10;;;;;;;23.75;52.73;95924.88;5113331;28;20048;-64
2023/07/20 02:02:36;;;;;;;5.65;2.97;;;;;;;23.65;53.24;95916.94;5113470;28;20051;-65
2023/07/20 02:05:04;;;;;;;6.57;3.30;;;;;;;23.54;53.96;95913.53;5113277;28;20050;-64
2023/07/20 02:07:32;;;;;;;14.77;3.25;;;;;;;23.40;54.30;95908.75;5113400;28;20047;-64
2023/07/20 02:09:59;;;;;;;10.63;2.78;;;;;;;23.15;54.05;95900.53;5113393;28;20126;-65
2023/07/20 02:12:27;;;;;;;10.00;3.05;;;;;;;22.83;53.54;95908.03;5113196;28;20142;-65
2023/07/20 02:14:54;;;;;;;9.02;3.50;;;;;;;22.59;54.65;95912.13;5113358;28;20046;-64
2023/07/20 02:17:21;;;;;;;7.80;3.28;;;;;;;22.54;55.54;95925.84;5113317;28;20493;-64
2023/07/20 02:19:49;;;;;;;9.55;3.40;;;;;;;22.52;56.29;95935.00;5113392;28;20052;-64
2023/07/20 02:22:17;;;;;;;13.10;3.60;;;;;;;22.48;56.20;95939.75;5113352;28;20124;-64
2023/07/20 02:24:46;;;;;;;7.95;3.30;;;;;;;22.46;56.44;95942.56;5113110;28;20458;-65
2023/07/20 02:27:13;;;;;;;9.95;3.15;;;;;;;22.38;57.04;95955.81;5113268;28;20044;-64
2023/07/20 02:29:42;;;;;;;7.20;3.70;;;;;;;22.30;56.88;95959.19;5113233;28;20043;-64
2023/07/20 02:32:10;;;;;;;5.20;3.25;;;;;;;22.25;58.83;95963.28;5113189;28;20044;-64
2023/07/20 02:34:38;;;;;;;8.43;3.30;;;;;;;22.17;58.71;95962.19;5113179;28;20054;-64
2023/07/20 02:37:07;;;;;;;6.57;3.40;;;;;;;22.05;59.00;95956.22;5113032;28;20088;-64
2023/07/20 02:39:35;;;;;;;5.88;3.10;;;;;;;21.96;58.85;95963.25;5113068;28;20044;-64
2023/07/20 02:42:04;;;;;;;10.80;3.08;;;;;;;21.88;59.28;95967.59;5113129;28;20047;-64
2023/07/20 02:44:32;;;;;;;9.02;3.45;;;;;;;21.79;59.86;95967.47;5113154;28;20051;-64
2023/07/20 02:47:00;;;;;;;8.50;3.38;;;;;;;21.72;59.70;95974.31;5072429;28;20144;-64
2023/07/20 02:49:28;;;;;;;7.60;3.17;;;;;;;21.63;59.42;95973.34;5072388;28;20055;-65
2023/07/20 02:51:55;;;;;;;8.35;3.33;;;;;;;21.51;59.73;95977.13;5072366;28;20378;-64
2023/07/20 02:54:23;;;;;;;14.52;4.00;;;;;;;21.44;60.38;95985.69;5072485;28;20048;-64
2023/07/20 02:56:50;;;;;;;13.20;3.58;;;;;;;21.30;60.57;95976.28;5072369;28;20088;-64
2023/07/20 02:59:20;;;;;;;6.28;3.40;;;;;;;21.19;61.18;95979.09;5072794;28;20426;-64
2023/07/20 03:01:47;;;;;;;6.57;3.50;;;;;;;21.14;60.72;95987.47;5075890;28;20052;-65
2023/07/20 03:04:16;;;;;;;11.00;3.58;;;;;;;21.14;61.03;95989.28;5075977;28;20048;-64
2023/07/20 03:06:43;;;;;;;8.30;3.20;;;;;;;21.10;61.36;95994.03;5075750;28;20051;-64
2023/07/20 03:09:10;;;;;;;6.40;3.63;;;;;;;21.09;61.95;95995.03;5075681;28;20055;-64
2023/07/20 03:11:38;;;;;;;5.70;3.20;;;;;;;20.98;61.63;96000.47;5075690;28;20511;-65
2023/07/20 03:14:06;;;;;;;9.13;3.50;;;;;;;20.85;61.62;95993.53;5075399;28;20083;-64
2023/07/20 03:16:34;;;;;;;8.20;3.22;;;;;;;20.77;61.74;96001.38;5075570;28;20482;-64
2023/07/20 03:19:01;;;;;;;5.35;3.67;;;;;;;20.77;63.13;95998.72;5075568;28;20102;-64
2023/07/20 03:21:29;;;;;;;8.95;3.72;;;;;;;20.65;62.61;96012.06;5075599;28;20132;-64
2023/07/20 03:23:56;;;;;;;8.35;3.78;;;;;;;20.65;63.30;96011.25;5075578;28;20052;-64
2023/07/20 03:26:24;;;;;;;5.35;3.17;;;;;;;20.58;63.49;96009.13;5075385;28;20052;-64
2023/07/20 03:28:51;;;;;;;10.38;3.83;;;;;;;20.52;64.49;96009.66;5075431;28;20049;-64
2023/07/20 03:31:18;;;;;;;10.85;3.65;;;;;;;20.50;63.68;96003.63;5075337;28;20501;-64
2023/07/20 03:33:47;;;;;;;7.45;3.67;;;;;;;20.60;64.89;96001.03;5075211;28;20048;-64
2023/07/20 03:36:14;;;;;;;10.25;3.55;;;;;;;20.61;64.17;96001.84;5075260;28;20040;-64
2023/07/20 03:38:42;;;;;;;8.43;3.92;;;;;;;20.66;64.42;96003.16;5075271;28;20044;-64
2023/07/20 03:41:09;;;;;;;6.90;3.80;;;;;;;20.71;64.46;96008.88;5075216;28;20044;-64
2023/07/20 03:43:36;;;;;;;14.50;3.70;;;;;;;20.83;64.79;96000.81;5075139;28;20040;-65
2023/07/20 03:46:06;;;;;;;12.13;3.45;;;;;;;20.92;64.56;96000.03;5099744;28;20492;-64
2023/07/20 03:48:35;;;;;;;12.70;3.67;;;;;;;20.93;64.08;95991.09;5115697;28;20444;-65
2023/07/20 03:51:04;;;;;;;9.95;3.83;;;;;;;21.01;63.57;95982.41;5115622;28;20454;-64
2023/07/20 03:53:31;;;;;;;11.98;3.75;;;;;;;21.23;63.10;95980.50;5115592;28;20078;-64
2023/07/20 03:55:59;;;;;;;9.95;3.58;;;;;;;21.49;62.84;95990.56;5115439;28;20441;-64
2023/07/20 03:58:29;;;;;;;11.30;3.67;;;;;;;21.80;63.25;95998.44;5115464;28;20378;-65
2023/07/20 04:01:00;;;;;;;10.57;3.70;;;;;;;22.09;61.94;96002.84;5115328;28;20047;-64
2023/07/20 04:03:31;;;;;;;10.10;3.60;;;;;;;22.33;60.26;96006.00;5115301;28;20070;-65
2023/07/20 04:05:59;;;;;;;5.93;3.20;;;;;;;22.59;60.13;96011.56;5115208;28;20070;-65
2023/07/20 04:08:28;;;;;;;8.65;3.67;;;;;;;22.88;59.96;96017.75;5115343;28;20043;-65
2023/07/20 04:10:55;;;;;;;6.65;3.10;;;;;;;23.14;59.28;96018.88;5115037;28;20584;-65
2023/07/20 04:13:24;;;;;;;9.90;3.10;;;;;;;23.38;58.51;96009.47;5115457;28;20089;-65
2023/07/20 04:15:51;;;;;;;12.48;3.70;;;;;;;23.63;57.94;96015.03;5115076;28;20054;-65
2023/07/20 04:18:19;;;;;;;8.93;3.40;;;;;;;23.83;57.29;96018.34;5114994;28;20501;-65
2023/07/20 04:20:47;;;;;;;5.97;3.42;;;;;;;23.97;57.71;96012.47;5114983;28;20048;-65
2023/07/20 04:23:16;;;;;;;11.55;3.03;;;;;;;24.24;57.80;96015.19;5114928;28;20458;-65
2023/07/20 04:25:45;;;;;;;7.63;3.10;;;;;;;24.56;57.11;96013.69;5114825;28;20048;-65
2023/07/20 04:28:13;;;;;;;17.13;4.07;;;;;;;24.85;55.54;96015.16;5114805;28;20134;-65
2023/07/20 04:30:41;;;;;;;5.57;3.22;;;;;;;25.22;55.08;96006.91;5114883;28;20123;-65
2023/07/20 04:33:10;;;;;;;6.50;3.80;;;;;;;25.63;54.15;96008.00;5114750;28;20051;-65
2023/07/20 04:35:48;;;;;;;7.18;4.07;;;;;;;25.95;51.97;96003.69;5114493;28;20040;-65
2023/07/20 04:38:17;;;;;;;5.43;4.25;;;;;;;26.28;53.49;96006.31;5114650;28;20043;-65
2023/07/20 04:40:48;;;;;;;6.72;4.20;;;;;;;26.59;52.65;96002.91;5114586;28;20043;-65
2023/07/20 04:43:16;;;;;;;7.88;4.00;;;;;;;26.94;52.39;96010.63;5114523;28;20401;-65
2023/07/20 04:45:44;;;;;;;9.93;3.88;;;;;;;27.37;51.23;96009.44;5114213;28;20048;-65
2023/07/20 04:48:12;;;;;;;5.38;4.45;;;;;;;27.71;48.66;96010.91;5114377;28;20040;-65
2023/07/20 04:50:44;;;;;;;7.72;4.40;;;;;;;28.08;50.12;96008.41;5114496;28;20044;-65
2023/07/20 04:53:12;;;;;;;8.02;4.50;;;;;;;28.45;49.78;96010.44;5114303;28;20077;-65
2023/07/20 04:55:40;;;;;;;10.25;4.65;;;;;;;28.73;48.28;96007.09;5114211;28;20446;-65
2023/07/20 04:58:09;;;;;;;12.48;5.00;;;;;;;29.08;49.41;96010.03;5114259;28;20043;-65
2023/07/20 05:00:39;;;;;;;10.38;4.65;;;;;;;29.37;48.92;96012.84;5114309;28;20373;-65
2023/07/20 05:03:07;;;;;;;11.35;4.50;;;;;;;29.54;47.82;96012.63;5114303;28;20401;-65
2023/07/20 05:05:34;;;;;;;9.18;4.40;;;;;;;29.77;47.93;96005.19;5114232;28;20090;-65
2023/07/20 05:08:01;;;;;;;8.73;4.03;;;;;;;29.97;45.24;95998.31;5114268;28;20126;-65
2023/07/20 05:10:29;;;;;;;8.65;4.75;;;;;;;30.30;46.37;95989.69;5114164;28;20051;-65
2023/07/20 05:12:57;;;;;;;12.05;4.63;;;;;;;30.56;45.45;95998.13;5114034;28;20491;-65
2023/07/20 05:15:26;;;;;;;9.13;4.35;;;;;;;30.77;44.31;96000.78;5114060;28;20089;-65
2023/07/20 05:17:54;;;;;;;6.60;4.00;;;;;;;30.99;44.48;96006.06;5114092;28;20045;-65
2023/07/20 05:20:22;;;;;;;6.13;4.57;;;;;;;31.19;42.57;96002.63;5113954;28;20157;-65
2023/07/20 05:22:50;;;;;;;7.32;4.60;;;;;;;31.35;43.13;95993.34;5113414;28;20067;-65
2023/07/20 05:25:19;;;;;;;12.55;4.13;;;;;;;31.62;41.39;95993.38;5113802;28;20048;-65
2023/07/20 05:27:47;;;;;;;10.20;4.57;;;;;;;31.74;40.00;95996.31;5113787;28;20405;-65
2023/07/20 05:30:14;;;;;;;9.52;4.75;;;;;;;31.90;37.88;96003.19;5113697;28;20082;-65
2023/07/20 05:32:45;;;;;;;12.15;4.88;;;;;;;32.14;40.14;96000.06;5113825;28;20048;-65
2023/07/20 05:35:12;;;;;;;8.02;4.32;;;;;;;32.20;40.21;96009.25;5113733;28;20051;-65
2023/07/20 05:37:39;;;;;;;13.35;4.53;;;;;;;32.35;40.75;96004.44;5113646;28;20093;-65
2023/07/20 05:40:10;;;;;;;6.88;4.40;;;;;;;32.33;37.91;95995.72;5113698;28;20054;-65
2023/07/20 05:42:37;;;;;;;9.00;4.38;;;;;;;32.35;37.27;96000.91;5113742;28;20055;-65
2023/07/20 05:45:05;;;;;;;7.80;4.70;;;;;;;32.33;37.86;96011.09;5113431;28;20397;-65
2023/07/20 05:47:32;;;;;;;11.95;4.85;;;;;;;32.50;38.67;96004.22;5113513;28;20077;-65
2023/07/20 05:50:03;;;;;;;8.38;3.97;;;;;;;32.52;37.92;96002.16;5113648;28;20043;-66
2023/07/20 05:52:30;;;;;;;10.35;4.80;;;;;;;32.67;37.56;96002.94;5113503;28;20515;-64
2023/07/20 05:54:58;;;;;;;5.45;4.18;;;;;;;32.86;39.00;95995.78;5113552;28;20051;-64
2023/07/20 05:57:26;;;;;;;8.63;4.03;;;;;;;33.18;39.34;96006.75;5113397;28;20055;-65
2023/07/20 05:59:53;;;;;;;7.38;4.50;;;;;;;33.50;38.06;96001.34;5113493;28;20489;-65
2023/07/20 06:02:21;;;;;;;11.07;4.63;;;;;;;33.47;34.45;95999.06;5113541;28;20044;-65
2023/07/20 06:04:48;;;;;;;5.75;4.50;;;;;;;33.64;35.12;95987.75;5113386;28;20055;-65
2023/07/20 06:07:17;;;;;;;6.85;4.55;;;;;;;33.70;34.31;95986.03;5113444;28;20051;-65
2023/07/20 06:09:44;;;;;;;8.60;4.50;;;;;;;33.64;34.89;95987.75;5113355;28;20196;-65
2023/07/20 06:12:11;;;;;;;7.03;4.45;;;;;;;33.83;32.76;95979.69;5113396;28;20051;-65
2023/07/20 06:14:39;;;;;;;12.48;5.03;;;;;;;33.82;32.02;95980.72;5113256;28;20409;-65
2023/07/20 06:17:06;;;;;;;7.93;4.60;;;;;;;33.96;34.11;95974.19;5113432;28;20097;-65
2023/07/20 06:19:34;;;;;;;10.25;4.55;;;;;;;34.13;33.46;95970.94;5113227;28;20094;-65
2023/07/20 06:22:01;;;;;;;11.82;5.38;;;;;;;34.26;31.63;95965.38;5113099;28;20496;-65
2023/07/20 06:24:30;;;;;;;7.43;4.32;;;;;;;34.16;33.02;95965.88;5113197;28;20047;-64
2023/07/20 06:26:57;;;;;;;13.93;4.90;;;;;;;34.38;32.03;95972.78;5113142;28;20077;-65
2023/07/20 06:29:25;;;;;;;11.07;4.07;;;;;;;34.65;31.83;95969.78;5113056;28;20047;-64
2023/07/20 06:31:53;;;;;;;10.98;4.53;;;;;;;34.92;33.01;95962.16;5112974;28;20087;-64
2023/07/20 06:34:23;;;;;;;8.82;3.97;;;;;;;35.31;32.04;95954.81;5113543;28;20090;-65
2023/07/20 06:36:51;;;;;;;12.73;4.70;;;;;;;35.52;32.33;95956.97;5117070;28;20047;-65
2023/07/20 06:39:18;;;;;;;7.75;4.40;;;;;;;35.72;31.28;95955.06;5117161;28;20481;-64
2023/07/20 06:41:47;;;;;;;10.50;4.55;;;;;;;35.84;30.75;95957.81;5117100;28;20054;-66
2023/07/20 06:44:15;;;;;;;10.07;4.60;;;;;;;36.01;29.55;95960.66;5117678;28;20047;-65
2023/07/20 06:46:42;;;;;;;9.23;4.10;;;;;;;36.09;31.12;95960.31;5116615;27;20052;-65
2023/07/20 06:49:09;;;;;;;12.40;4.43;;;;;;;36.23;31.14;95949.22;5116895;28;20131;-65
2023/07/20 06:51:37;;;;;;;7.68;4.80;;;;;;;36.41;30.12;95961.84;5116848;28;20447;-65
2023/07/20 06:54:04;;;;;;;6.75;4.15;;;;;;;36.48;28.14;95954.38;5116810;28;20040;-65
2023/07/20 06:56:31;;;;;;;7.03;4.30;;;;;;;36.69;27.99;95951.28;5116795;28;20128;-65
2023/07/20 06:59:02;;;;;;;9.68;4.80;;;;;;;36.81;29.31;95954.00;5116776;28;20039;-65
2023/07/20 07:01:29;;;;;;;10.75;4.40;;;;;;;36.97;29.46;95957.84;5116660;28;20086;-65
2023/07/20 07:03:57;;;;;;;7.38;4.72;;;;;;;37.23;29.07;95961.13;5116488;28;20100;-65
2023/07/20 07:06:24;;;;;;;11.23;4.93;;;;;;;37.30;27.49;95959.06;5116327;28;20048;-64
2023/07/20 07:08:51;;;;;;;8.25;4.38;;;;;;;37.19;27.22;95958.03;5116613;28;20051;-65
2023/07/20 07:11:18;;;;;;;8.93;4.72;;;;;;;37.36;27.29;95947.19;5116661;28;20401;-65
2023/07/20 07:13:46;;;;;;;7.07;4.60;;;;;;;37.52;26.73;95950.19;5116233;28;20051;-64
2023/07/20 07:16:18;;;;;;;6.88;4.15;;;;;;;37.57;27.17;95947.56;5116374;28;20047;-65
2023/07/20 07:18:45;;;;;;;16.05;4.72;;;;;;;37.81;26.84;95941.97;5116118;28;20055;-66
2023/07/20 07:21:12;;;;;;;8.98;4.63;;;;;;;37.88;27.12;95933.63;5116258;28;20054;-65
2023/07/20 07:23:40;;;;;;;9.80;4.50;;;;;;;38.00;26.27;95934.38;5116082;28;20079;-65
2023/07/20 07:26:07;;;;;;;7.68;4.63;;;;;;;38.28;26.08;95934.53;5116131;28;20043;-65
2023/07/20 07:28:34;;;;;;;9.85;4.57;;;;;;;38.33;25.77;95937.31;5116518;28;20079;-66
2023/07/20 07:31:02;;;;;;;9.43;4.72;;;;;;;38.09;26.37;95942.13;5115963;28;20043;-65
2023/07/20 07:33:31;;;;;;;9.00;4.50;;;;;;;37.76;27.42;95942.72;5115844;28;20609;-64
2023/07/20 07:35:59;;;;;;;6.30;4.45;;;;;;;37.87;27.06;95954.63;5115958;28;20130;-65
2023/07/20 07:38:26;;;;;;;9.30;4.03;;;;;;;37.93;27.22;95947.34;5115878;28;20101;-65
2023/07/20 07:40:53;;;;;;;7.25;3.75;;;;;;;38.05;27.12;95948.06;5115920;28;20063;-65
2023/07/20 07:43:20;;;;;;;9.73;4.82;;;;;;;38.10;27.23;95957.44;5115831;28;20048;-65
2023/07/20 07:45:47;;;;;;;7.70;4.10;;;;;;;38.13;26.22;95940.56;5115097;27;20079;-64
2023/07/20 07:48:14;;;;;;;13.98;4.50;;;;;;;38.13;26.29;95949.56;5115571;28;20581;-65
2023/07/20 07:50:43;;;;;;;8.02;4.90;;;;;;;38.16;26.38;95945.56;5115711;28;20047;-65
2023/07/20 07:53:10;;;;;;;10.82;5.05;;;;;;;38.30;26.31;95940.53;5115588;28;20088;-65
2023/07/20 07:55:38;;;;;;;6.43;4.30;;;;;;;38.53;26.79;95955.88;5115492;28;20100;-65
2023/07/20 07:58:05;;;;;;;8.70;4.30;;;;;;;38.48;26.67;95944.91;5115596;28;20138;-65
2023/07/20 08:00:33;;;;;;;8.30;4.43;;;;;;;38.31;25.14;95947.66;5115450;28;20051;-65
2023/07/20 08:03:00;;;;;;;7.30;4.35;;;;;;;38.34;27.38;95949.06;5115390;28;20044;-64
2023/07/20 08:05:27;;;;;;;7.35;4.40;;;;;;;38.35;27.06;95942.53;5115318;28;20048;-65
2023/07/20 08:07:55;;;;;;;10.27;4.60;;;;;;;38.53;27.34;95946.88;5115266;28;20055;-64
2023/07/20 08:10:23;;;;;;;13.77;5.28;;;;;;;38.64;25.56;95951.41;5115307;28;20130;-65
2023/07/20 08:12:51;;;;;;;6.38;4.50;;;;;;;38.63;25.07;95948.94;5115123;28;20481;-64
2023/07/20 08:15:18;;;;;;;10.75;4.35;;;;;;;38.57;25.61;95947.16;5115207;28;20108;-65
2023/07/20 08:17:45;;;;;;;11.68;4.57;;;;;;;38.65;26.38;95935.84;5115031;28;20044;-64
2023/07/20 08:20:16;;;;;;;7.55;4.63;;;;;;;38.54;25.84;95935.69;5115093;28;20052;-65
2023/07/20 08:22:43;;;;;;;5.88;4.55;;;;;;;38.57;25.79;95936.25;5114865;28;20485;-64
2023/07/20 08:25:11;;;;;;;11.18;4.90;;;;;;;38.78;27.13;95927.28;5114945;28;20051;-65
2023/07/20 08:27:38;;;;;;;9.35;4.40;;;;;;;38.79;25.64;95928.94;5114812;28;20083;-64
2023/07/20 08:30:07;;;;;;;7.30;4.80;;;;;;;38.86;25.74;95933.38;5114766;28;20123;-64
2023/07/20 08:32:35;;;;;;;13.30;4.73;;;;;;;39.00;25.33;95933.81;5114838;28;20580;-65
2023/07/20 08:35:02;;;;;;;11.35;4.90;;;;;;;39.10;26.04;95928.50;5114755;28;20096;-64
2023/07/20 08:37:30;;;;;;;9.68;4.53;;;;;;;39.12;23.75;95933.69;5114733;28;20048;-65
2023/07/20 08:39:57;;;;;;;10.65;4.90;;;;;;;38.90;25.67;95942.69;5114735;28;20044;-64
2023/07/20 08:42:26;;;;;;;4.65;4.10;;;;;;;38.85;26.20;95937.19;5114639;28;20492;-64
2023/07/20 08:44:56;;;;;;;9.60;4.82;;;;;;;39.01;26.29;95943.66;5114293;28;20513;-64
2023/07/20 08:47:24;;;;;;;6.22;4.68;;;;;;;39.09;25.63;95947.84;5114497;28;20393;-64
2023/07/20 08:49:52;;;;;;;7.30;4.65;;;;;;;39.02;25.92;95942.56;5114502;28;20044;-65
2023/07/20 08:52:19;;;;;;;6.88;4.97;;;;;;;38.99;24.98;95951.28;5114487;28;20435;-64
2023/07/20 08:54:46;;;;;;;5.15;4.47;;;;;;;38.86;26.33;95941.56;5114456;28;20081;-64
2023/07/20 08:57:15;;;;;;;11.30;4.97;;;;;;;38.79;25.64;95939.84;5113750;28;20412;-64
2023/07/20 08:59:45;;;;;;;7.35;4.63;;;;;;;38.47;24.14;95929.59;5114286;28;20048;-65
2023/07/20 09:02:18;;;;;;;15.85;5.05;;;;;;;38.26;25.84;95928.47;5114349;28;20048;-64
2023/07/20 09:04:45;;;;;;;14.73;5.35;;;;;;;38.19;25.74;95920.47;5114298;28;20072;-64
2023/07/20 09:07:14;;;;;;;5.03;4.53;;;;;;;38.24;25.55;95911.53;5114240;28;20054;-65
2023/07/20 09:09:42;;;;;;;11.98;5.13;;;;;;;38.00;25.42;95915.25;5114131;28;20040;-64
2023/07/20 09:12:15;;;;;;;6.32;4.95;;;;;;;37.93;26.39;95914.63;5114250;28;20040;-65
2023/07/20 09:14:46;;;;;;;5.45;4.60;;;;;;;37.68;28.02;95915.88;5114189;28;20044;-65
2023/07/20 09:17:16;;;;;;;11.32;5.00;;;;;;;37.38;26.03;95925.16;5114033;28;20051;-65
2023/07/20 09:19:48;;;;;;;8.88;4.90;;;;;;;36.89;27.03;95913.59;5114028;28;20425;-64
2023/07/20 09:22:15;;;;;;;10.07;4.82;;;;;;;36.72;28.77;95912.72;5113856;28;20079;-65
2023/07/20 09:24:43;;;;;;;8.55;4.82;;;;;;;36.88;28.48;95911.13;5113917;28;20048;-65
2023/07/20 09:27:10;;;;;;;9.45;4.43;;;;;;;36.94;29.65;95906.59;5113812;28;20043;-64
2023/07/20 09:29:55;;;;;;;9.40;4.57;;;;;;;36.84;27.66;95901.78;5113682;28;20043;-64
2023/07/20 09:32:23;;;;;;;7.43;4.93;;;;;;;36.63;27.14;95904.06;5113814;28;20058;-65
2023/07/20 09:34:52;;;;;;;10.25;4.78;;;;;;;36.69;28.10;95894.94;5113742;28;20109;-65
2023/07/20 09:37:22;;;;;;;8.32;4.70;;;;;;;36.94;27.80;95888.34;5113865;28;20536;-64
2023/07/20 09:39:50;;;;;;;;;;;;;;;37.26;29.10;95895.22;5114183;28;20047;-64
2023/07/20 09:42:17;;;;;;;10.20;4.65;;;;;;;37.39;28.39;95875.84;5113552;28;19962;-64
2023/07/20 09:44:47;;;;;;;12.15;4.85;;;;;;;37.36;28.14;95868.16;5113193;28;20413;-64
2023/07/20 09:47:22;;;;;;;10.13;4.75;;;;;;;37.12;28.10;95864.69;5113523;28;20040;-65
2023/07/20 09:49:49;;;;;;;12.85;4.85;;;;;;;37.07;28.36;95873.59;5113451;28;20044;-65
2023/07/20 09:52:17;;;;;;;8.68;4.97;;;;;;;36.75;27.55;95871.38;5113451;28;20044;-64
2023/07/20 09:54:47;;;;;;;6.15;4.18;;;;;;;36.71;30.17;95862.06;5113694;28;20071;-64
2023/07/20 09:57:15;;;;;;;9.02;4.45;;;;;;;36.83;27.84;95864.72;5113494;28;20044;-65
2023/07/20 09:59:44;;;;;;;12.52;4.63;;;;;;;36.97;27.64;95854.34;5113588;28;20051;-64
2023/07/20 10:02:21;;;;;;;7.70;4.90;;;;;;;36.84;28.94;95844.59;5113543;28;20168;-64
2023/07/20 10:04:50;;;;;;;9.80;4.63;;;;;;;36.96;29.59;95845.34;5113452;28;20048;-64
2023/07/20 10:07:21;;;;;;;7.88;4.55;;;;;;;37.22;29.34;95829.47;5113191;28;20048;-64
2023/07/20 10:09:55;;;;;;;13.13;4.88;;;;;;;37.41;28.49;95824.59;5116418;28;20044;-65
2023/07/20 10:12:24;;;;;;;12.40;4.50;;;;;;;37.45;27.67;95816.78;5117637;28;20044;-63
2023/07/20 10:15:01;;;;;;;10.48;4.05;;;;;;;37.35;28.38;95830.25;5117572;28;20489;-64
2023/07/20 10:17:32;;;;;;;10.30;4.45;;;;;;;37.45;26.76;95835.03;5117509;28;20052;-64
2023/07/20 10:20:05;;;;;;;11.48;4.40;;;;;;;37.73;25.04;95844.19;5117567;28;20047;-65
2023/07/20 10:22:37;;;;;;;12.27;4.85;;;;;;;37.73;25.09;95836.00;5117481;28;20124;-65
2023/07/20 10:25:06;;;;;;;11.63;4.35;;;;;;;37.81;25.28;95830.16;5117268;28;20043;-64
2023/07/20 10:27:33;;;;;;;6.73;4.17;;;;;;;37.98;25.75;95819.19;5117207;28;20579;-65
2023/07/20 10:30:02;;;;;;;16.55;4.90;;;;;;;37.86;25.74;95816.56;5117152;28;20504;-64
2023/07/20 10:32:31;;;;;;;9.05;4.30;;;;;;;37.96;26.56;95829.56;5117196;28;20496;-65
2023/07/20 10:34:58;;;;;;;11.83;4.30;;;;;;;38.05;23.74;95817.09;5117302;28;20439;-64
2023/07/20 10:37:48;;;;;;;9.98;4.95;;;;;;;38.16;25.04;95815.38;5116992;28;20288;-66
2023/07/20 10:40:30;;;;;;;12.05;4.30;;;;;;;38.11;25.13;95809.84;5112910;28;20481;-64
2023/07/20 10:43:00;;;;;;;7.68;4.05;;;;;;;38.02;24.29;95803.16;5117105;28;20044;-64
2023/07/20 10:45:51;;;;;;;10.00;4.45;;;;;;;37.90;23.76;95804.09;5116704;28;20047;-65
2023/07/20 10:48:21;;;;;;;8.43;4.43;;;;;;;37.85;24.58;95808.63;5101576;28;20054;-65
2023/07/20 10:51:21;;;;;;;15.57;4.63;;;;;;;37.80;26.08;95804.78;5116881;28;20046;-64
2023/07/20 10:53:50;;;;;;;6.00;4.00;;;;;;;37.64;26.55;95803.69;5116679;28;20051;-64
2023/07/20 10:56:21;;;;;;;13.00;5.07;;;;;;;37.72;26.33;95799.75;5116761;28;20047;-66
2023/07/20 10:58:48;;;;;;;10.70;4.43;;;;;;;37.81;25.15;95791.97;5116653;28;20134;-64
2023/07/20 11:01:17;;;;;;;12.57;4.35;;;;;;;37.93;25.26;95794.59;5116710;28;20051;-64
2023/07/20 11:03:52;;;;;;;7.53;4.03;;;;;;;37.69;24.14;95789.34;5116597;28;20058;-66
2023/07/20 11:06:38;;;;;;;10.93;4.55;;;;;;;37.51;25.41;95783.06;5116429;28;20101;-64
2023/07/20 11:09:15;;;;;;;9.43;4.43;;;;;;;37.47;25.04;95778.38;5116234;28;20052;-64
2023/07/20 11:11:44;;;;;;;8.38;3.97;;;;;;;37.42;25.63;95774.50;5116446;28;20048;-64
2023/07/20 11:14:21;;;;;;;9.93;4.38;;;;;;;37.61;25.11;95773.38;5116372;28;20439;-64
2023/07/20 11:16:50;;;;;;;7.45;4.70;;;;;;;37.65;25.18;95778.06;5116278;28;20052;-66
2023/07/20 11:19:23;;;;;;;9.27;4.80;;;;;;;37.63;25.68;95782.13;5116426;28;20048;-64
2023/07/20 11:21:52;;;;;;;10.65;4.70;;;;;;;37.43;25.30;95780.75;5115293;27;20036;-64
2023/07/20 11:24:20;;;;;;;9.23;4.10;;;;;;;37.23;28.20;95789.44;5116420;28;20047;-64
2023/07/20 11:26:49;;;;;;;11.13;4.55;;;;;;;36.99;27.71;95792.28;5116246;28;20130;-65
2023/07/20 11:29:18;;;;;;;7.82;3.83;;;;;;;36.66;28.39;95794.69;5116014;28;20051;-65
2023/07/20 11:31:47;;;;;;;9.13;4.47;;;;;;;36.38;30.19;95793.59;5115978;28;20048;-64
2023/07/20 11:34:16;;;;;;;6.60;4.32;;;;;;;36.13;29.72;95790.09;5115998;27;20112;-65
2023/07/20 11:36:46;;;;;;;7.75;4.35;;;;;;;36.02;30.33;95794.50;5116154;28;20073;-65
2023/07/20 11:39:17;;;;;;;11.13;4.53;;;;;;;35.99;30.90;95783.28;5115994;28;20047;-64